Time;durP1;ratioP1;P1;durP2;ratioP2;P2;SDS_P1;SDS_P2;PMS_P1;PMS_P2;Temp;Humidity;BMP_temperature;BMP_pressure;BME280_temperature;BME280_humidity;BME280_pressure;Samples;Min_cycle;Max_cycle;Signal;HPM_P1;HPM_P2
2023/01/03 00:01:46;;;;;;;;;;;;;;;3.66;73.52;100859.81;4979535;28;19913;-96
2023/01/03 00:04:13;;;;;;;;;;;;;;;3.61;73.56;100859.66;4979061;28;19914;-96
2023/01/03 00:06:41;;;;;;;;;;;;;;;3.49;73.67;100861.88;4978819;28;20005;-96
2023/01/03 00:09:10;;;;;;;;;;;;;;;3.50;73.67;100861.03;4980722;28;19977;-96
2023/01/03 00:14:26;;;;;;;;;;;;;;;3.53;73.43;100858.53;4995544;28;19921;-96
2023/01/03 00:16:52;;;;;;;;;;;;;;;3.51;73.60;100868.03;4978012;28;20000;-96
2023/01/03 00:19:21;;;;;;;;;;;;;;;3.47;73.47;100867.03;4978344;28;19936;-96
2023/01/03 00:21:47;;;;;;;;;;;;;;;3.39;73.34;100872.00;4994359;28;20098;-96
2023/01/03 00:24:12;;;;;;;;;;;;;;;3.49;73.24;100864.47;4985444;28;19947;-96
2023/01/03 00:26:39;;;;;;;;;;;;;;;3.44;73.43;100866.94;4977770;28;19918;-96
2023/01/03 00:29:06;;;;;;;;;;;;;;;3.38;72.34;100862.44;4978328;28;19951;-95
2023/01/03 00:31:32;;;;;;;;;;;;;;;3.14;72.83;100866.81;4978078;28;19964;-96
2023/01/03 00:33:57;;;;;;;;;;;;;;;3.08;72.92;100864.88;4977036;28;20443;-94
2023/01/03 00:36:23;;;;;;;;;;;;;;;3.04;73.56;100863.91;4978811;28;20419;-94
2023/01/03 00:38:48;;;;;;;;;;;;;;;3.06;73.42;100866.56;4961679;28;19918;-94
2023/01/03 00:41:14;;;;;;;;;;;;;;;3.08;73.45;100858.78;4977206;28;19918;-95
2023/01/03 00:43:42;;;;;;;;;;;;;;;3.18;72.05;100866.06;4977431;28;20288;-95
2023/01/03 00:46:08;;;;;;;;;;;;;;;3.02;71.95;100860.34;4977581;28;20430;-94
2023/01/03 00:48:33;;;;;;;;;;;;;;;3.05;72.09;100862.16;4960890;28;20295;-95
2023/01/03 00:51:05;;;;;;;;;;;;;;;2.98;72.42;100860.19;4977549;28;19914;-95
2023/01/03 00:53:30;;;;;;;;;;;;;;;3.10;72.33;100859.72;4978050;28;19914;-94
2023/01/03 00:56:00;;;;;;;;;;;;;;;3.04;72.84;100849.97;4977278;28;19913;-94
2023/01/03 00:58:28;;;;;;;;;;;;;;;2.92;73.29;100846.94;4981280;28;20005;-94
2023/01/03 01:00:53;;;;;;;;;;;;;;;2.95;73.09;100845.34;4986707;28;19920;-94
2023/01/03 01:03:19;;;;;;;;;;;;;;;2.97;72.97;100841.06;4989812;28;20303;-93
2023/01/03 01:05:44;;;;;;;;;;;;;;;3.03;73.19;100841.25;4973423;28;19914;-95
2023/01/03 01:08:10;;;;;;;;;;;;;;;3.03;72.99;100840.38;5003551;28;19921;-95
2023/01/03 01:10:35;;;;;;;;;;;;;;;3.02;73.34;100836.00;4977696;28;19913;-96
2023/01/03 01:13:00;;;;;;;;;;;;;;;2.96;72.74;100833.19;4977314;28;19929;-95
2023/01/03 01:15:26;;;;;;;;;;;;;;;2.87;72.99;100833.75;4994907;28;19921;-96
2023/01/03 01:17:52;;;;;;;;;;;;;;;2.90;72.78;100839.06;4961158;28;20269;-95
2023/01/03 01:20:17;;;;;;;;;;;;;;;2.91;72.89;100830.41;4976267;28;20380;-95
2023/01/03 01:22:42;;;;;;;;;;;;;;;2.82;73.20;100823.16;4976691;28;19913;-95
2023/01/03 01:25:07;;;;;;;;;;;;;;;2.86;72.95;100830.25;4976639;28;19960;-94
2023/01/03 01:27:33;;;;;;;;;;;;;;;2.88;73.01;100829.44;4976770;28;19928;-94
2023/01/03 01:29:58;;;;;;;;;;;;;;;2.82;72.71;100835.31;4976452;28;19925;-95
2023/01/03 01:32:23;;;;;;;;;;;;;;;2.64;73.19;100836.47;4976563;28;19913;-94
2023/01/03 01:34:49;;;;;;;;;;;;;;;2.53;73.80;100829.97;4960666;28;20377;-94
2023/01/03 01:37:14;;;;;;;;;;;;;;;2.41;73.85;100829.50;4993657;28;19913;-94
2023/01/03 01:39:39;;;;;;;;;;;;;;;2.44;73.97;100829.63;4976465;28;19918;-94
2023/01/03 01:44:58;;;;;;;;;;;;;;;2.50;73.80;100829.84;4994279;28;19975;-94
2023/01/03 01:47:23;;;;;;;;;;;;;;;2.57;73.57;100828.38;4976805;28;19909;-95
2023/01/03 01:49:56;;;;;;;;;;;;;;;2.47;74.26;100828.03;4976897;28;20327;-95
2023/01/03 01:52:22;;;;;;;;;;;;;;;2.55;73.30;100823.09;4976576;28;20367;-94
2023/01/03 01:54:48;;;;;;;;;;;;;;;2.63;72.68;100825.97;4975949;28;19914;-94
2023/01/03 01:57:16;;;;;;;;;;;;;;;2.53;73.84;100816.94;4976376;28;19914;-94
2023/01/03 01:59:43;;;;;;;;;;;;;;;2.39;73.90;100819.03;4959884;28;20306;-94
2023/01/03 02:02:08;;;;;;;;;;;;;;;2.19;74.41;100810.50;4976498;28;19914;-94
2023/01/03 02:04:35;;;;;;;;;;;;;;;2.16;75.21;100805.19;4976329;28;19913;-95
2023/01/03 02:07:02;;;;;;;;;;;;;;;2.39;75.12;100810.34;4993969;28;19914;-94
2023/01/03 02:09:27;;;;;;;;;;;;;;;2.44;74.70;100809.69;4977148;28;19914;-96
2023/01/03 02:15:07;;;;;;;;;;;;;;;2.50;74.38;100807.31;4993668;28;19940;-94
2023/01/03 02:17:44;;;;;;;;;;;;;;;2.51;74.00;100805.59;4976905;28;19914;-95
2023/01/03 02:20:17;;;;;;;;;;;;;;;2.44;74.83;100804.50;4976657;28;19914;-95
2023/01/03 02:22:51;;;;;;;;;;;;;;;2.46;74.85;100808.03;4976961;28;20307;-95
2023/01/03 02:25:32;;;;;;;;;;;;;;;2.45;74.99;100807.97;4977080;28;19918;-96
2023/01/03 02:28:16;;;;;;;;;;;;;;;2.36;75.04;100805.03;4976719;28;19921;-96
2023/01/03 02:30:47;;;;;;;;;;;;;;;2.28;74.32;100804.75;4976479;28;19913;-96
2023/01/03 02:33:12;;;;;;;;;;;;;;;2.25;74.66;100808.13;4980693;28;19921;-96
2023/01/03 02:35:56;;;;;;;;;;;;;;;2.24;74.83;100800.25;4980535;28;19918;-96
2023/01/03 02:38:22;;;;;;;;;;;;;;;2.24;74.58;100793.34;4997543;28;20060;-96
2023/01/03 02:41:03;;;;;;;;;;;;;;;2.28;74.38;100792.63;4981416;28;19980;-96
2023/01/03 02:43:51;;;;;;;;;;;;;;;2.05;74.76;100786.56;4981237;28;19918;-95
2023/01/03 02:46:22;;;;;;;;;;;;;;;2.09;75.92;100795.41;4973550;28;20312;-96
2023/01/03 02:49:06;;;;;;;;;;;;;;;2.08;75.62;100791.88;4979356;28;19914;-96
2023/01/03 02:51:45;;;;;;;;;;;;;;;2.07;76.24;100795.34;4991641;28;20288;-96
2023/01/03 02:54:34;;;;;;;;;;;;;;;2.19;76.03;100791.41;4979874;28;19976;-96
2023/01/03 02:57:10;;;;;;;;;;;;;;;2.17;76.44;100796.56;4994343;28;19914;-96
2023/01/03 02:59:40;;;;;;;;;;;;;;;2.26;76.30;100788.19;4984222;28;19977;-96
2023/01/03 03:02:06;;;;;;;;;;;;;;;2.28;76.73;100796.94;4981155;28;19969;-96
2023/01/03 03:04:34;;;;;;;;;;;;;;;2.07;75.60;100805.75;4979369;28;19920;-94
2023/01/03 03:07:18;;;;;;;;;;;;;;;1.94;75.07;100801.78;4979143;28;19921;-95
2023/01/03 03:15:14;;;;;;;;;;;;;;;1.92;75.98;100802.56;4997233;28;19973;-96
2023/01/03 03:17:42;;;;;;;;;;;;;;;2.04;75.87;100800.44;4979144;28;20384;-96
2023/01/03 03:25:55;;;;;;;;;;;;;;;2.04;74.75;100799.53;4997318;28;20379;-96
2023/01/03 03:28:34;;;;;;;;;;;;;;;1.87;75.69;100799.81;4979721;28;20368;-96
2023/01/03 03:31:18;;;;;;;;;;;;;;;1.94;75.39;100793.97;4979317;28;19917;-96
2023/01/03 03:33:47;;;;;;;;;;;;;;;2.01;75.85;100796.81;4979184;28;20020;-96
2023/01/03 03:36:29;;;;;;;;;;;;;;;1.82;75.38;100795.25;4979627;28;20360;-95
2023/01/03 03:38:54;;;;;;;;;;;;;;;1.91;75.43;100793.84;4979076;28;20300;-94
2023/01/03 03:47:13;;;;;;;;;;;;;;;1.27;78.96;100794.88;4996792;28;19964;-94
2023/01/03 03:49:40;;;;;;;;;;;;;;;1.56;78.15;100787.31;4962542;28;19914;-94
2023/01/03 03:52:09;;;;;;;;;;;;;;;1.67;77.41;100792.94;4978415;28;19921;-95
2023/01/03 03:54:37;;;;;;;;;;;;;;;1.78;76.78;100787.31;4978518;28;19913;-95
2023/01/03 03:57:10;;;;;;;;;;;;;;;1.84;76.07;100793.56;4962437;28;19918;-95
2023/01/03 03:59:37;;;;;;;;;;;;;;;1.82;76.08;100790.03;4978349;28;19918;-94
2023/01/03 04:02:04;;;;;;;;;;;;;;;1.76;76.10;100790.69;4978145;28;19913;-93
2023/01/03 04:04:33;;;;;;;;;;;;;;;1.91;75.21;100785.19;4977333;28;19993;-93
2023/01/03 04:06:58;;;;;;;;;;;;;;;1.90;74.57;100793.81;4995297;28;19922;-89
2023/01/03 04:09:23;;;;;;;;;;;;;;;1.92;74.49;100785.22;4994551;28;20052;-92
2023/01/03 04:11:49;;;;;;;;;;;;;;;1.91;74.37;100787.78;4977612;28;19941;-92
2023/01/03 04:14:14;;;;;;;;;;;;;;;1.86;74.34;100794.53;4994756;28;20000;-89
2023/01/03 04:16:39;;;;;;;;;;;;;;;1.57;74.68;100787.38;4994856;28;19914;-87
2023/01/03 04:19:05;;;;;;;;;;;;;;;1.59;74.69;100787.44;4994410;28;19956;-90
2023/01/03 04:21:30;;;;;;;;;;;;;;;1.63;74.53;100785.84;4994946;28;19945;-90
2023/01/03 04:23:56;;;;;;;;;;;;;;;1.62;74.95;100787.53;4976967;28;20360;-85
2023/01/03 04:26:21;;;;;;;;;;;;;;;1.39;75.78;100787.56;4994512;28;20284;-89
2023/01/03 04:28:46;;;;;;;;;;;;;;;1.56;75.77;100784.72;4994483;28;19917;-88
2023/01/03 04:31:11;;;;;;;;;;;;;;;1.50;75.95;100787.97;4994671;28;20378;-88
2023/01/03 04:33:37;;;;;;;;;;;;;;;1.54;75.26;100800.25;4993832;28;19949;-89
2023/01/03 04:36:02;;;;;;;;;;;;;;;1.30;76.46;100794.06;4994363;28;19914;-86
2023/01/03 04:38:28;;;;;;;;;;;;;;;1.24;76.70;100800.81;4994322;28;20384;-87
2023/01/03 04:40:53;;;;;;;;;;;;;;;1.37;76.23;100803.91;4993943;28;20376;-88
2023/01/03 04:46:02;;;;;;;;;;;;;;;1.41;76.07;100806.69;4994278;28;19972;-88
2023/01/03 04:48:27;;;;;;;;;;;;;;;1.42;76.97;100808.47;4976816;28;19918;-88
2023/01/03 04:50:53;;;;;;;;;;;;;;;1.54;76.59;100810.66;4994166;28;20310;-89
2023/01/03 04:53:19;;;;;;;;;;;;;;;1.63;76.07;100806.66;4976045;28;19956;-87
2023/01/03 04:55:48;;;;;;;;;;;;;;;1.75;75.22;100809.75;4977953;28;19921;-88
2023/01/03 04:58:14;;;;;;;;;;;;;;;1.59;76.13;100814.34;4978579;28;19914;-88
2023/01/03 05:00:39;;;;;;;;;;;;;;;1.53;76.01;100813.19;4976850;28;19913;-90
2023/01/03 05:03:05;;;;;;;;;;;;;;;1.63;75.84;100804.94;4995348;28;19957;-90
2023/01/03 05:05:30;;;;;;;;;;;;;;;1.59;75.59;100811.75;4979046;28;19965;-90
2023/01/03 05:07:56;;;;;;;;;;;;;;;1.58;75.54;100806.47;4998967;28;19964;-90
2023/01/03 05:10:21;;;;;;;;;;;;;;;1.58;75.49;100809.09;4996686;28;19937;-88
2023/01/03 05:12:58;;;;;;;;;;;;;;;1.63;75.88;100804.94;4995454;28;20492;-90
2023/01/03 05:15:27;;;;;;;;;;;;;;;1.66;75.80;100802.44;4996770;28;19913;-91
2023/01/03 05:17:53;;;;;;;;;;;;;;;1.70;75.78;100804.34;4996008;28;20388;-91
2023/01/03 05:25:49;;;;;;;;;;;;;;;1.59;75.76;100824.75;4994248;28;20438;-90
2023/01/03 05:28:15;;;;;;;;;;;;;;;1.39;76.26;100825.66;4995788;28;19914;-91
2023/01/03 05:30:40;;;;;;;;;;;;;;;1.38;76.30;100826.50;4994415;28;19938;-91
2023/01/03 05:33:06;;;;;;;;;;;;;;;1.54;75.89;100836.66;4996312;28;19920;-92
2023/01/03 05:35:32;;;;;;;;;;;;;;;1.58;75.43;100832.50;4998016;28;19939;-93
2023/01/03 05:37:57;;;;;;;;;;;;;;;1.55;75.46;100835.84;4997644;28;19918;-92
2023/01/03 05:40:22;;;;;;;;;;;;;;;1.54;75.41;100836.66;4998718;28;19940;-90
2023/01/03 05:42:47;;;;;;;;;;;;;;;1.56;75.68;100842.84;4998732;28;19917;-91
2023/01/03 05:45:13;;;;;;;;;;;;;;;1.53;75.82;100840.13;5000310;28;19913;-94
2023/01/03 05:47:38;;;;;;;;;;;;;;;1.58;75.37;100841.16;4999192;28;19976;-93
2023/01/03 05:50:03;;;;;;;;;;;;;;;1.54;75.45;100836.66;4996217;28;19988;-92
2023/01/03 05:52:29;;;;;;;;;;;;;;;1.51;74.64;100835.66;4994308;28;19928;-93
2023/01/03 05:54:54;;;;;;;;;;;;;;;1.56;74.63;100839.31;4994331;28;19917;-92
2023/01/03 05:57:19;;;;;;;;;;;;;;;1.57;73.61;100843.72;4993665;28;20295;-92
2023/01/03 05:59:45;;;;;;;;;;;;;;;1.38;73.44;100848.19;4993232;28;19914;-92
2023/01/03 06:02:10;;;;;;;;;;;;;;;1.37;73.91;100838.59;4993927;28;19914;-92
2023/01/03 06:04:35;;;;;;;;;;;;;;;1.38;73.96;100848.19;4993410;28;19960;-91
2023/01/03 06:07:01;;;;;;;;;;;;;;;1.48;73.90;100844.22;4997597;28;19921;-89
2023/01/03 06:09:26;;;;;;;;;;;;;;;1.48;73.90;100851.16;4996862;28;19914;-88
2023/01/03 06:11:51;;;;;;;;;;;;;;;1.40;74.17;100848.22;4996960;28;19910;-89
2023/01/03 06:14:18;;;;;;;;;;;;;;;1.39;74.36;100851.66;4996485;28;19914;-89
2023/01/03 06:19:28;;;;;;;;;;;;;;;1.57;74.47;100859.31;4996717;28;19972;-92
2023/01/03 06:21:53;;;;;;;;;;;;;;;1.53;74.65;100857.41;4996721;28;19977;-92
2023/01/03 06:24:18;;;;;;;;;;;;;;;1.53;75.35;100862.59;4979655;28;19979;-90
2023/01/03 06:26:44;;;;;;;;;;;;;;;1.71;74.47;100857.25;4996965;28;19921;-93
2023/01/03 06:29:09;;;;;;;;;;;;;;;1.77;74.63;100852.31;4981331;28;20253;-94
2023/01/03 06:31:36;;;;;;;;;;;;;;;1.54;75.31;100844.47;4999138;28;19913;-93
2023/01/03 06:34:02;;;;;;;;;;;;;;;1.58;75.44;100845.50;4996865;28;19914;-92
2023/01/03 06:36:27;;;;;;;;;;;;;;;1.78;75.49;100843.69;4997375;28;19980;-90
2023/01/03 06:38:52;;;;;;;;;;;;;;;1.83;75.87;100851.66;4979477;28;19909;-93
2023/01/03 06:41:17;;;;;;;;;;;;;;;1.93;76.34;100848.56;4997024;28;19917;-94
2023/01/03 06:43:43;;;;;;;;;;;;;;;1.78;76.71;100860.16;4979758;28;20342;-96
2023/01/03 06:54:23;;;;;;;;;;;;;;;2.35;78.00;100852.72;4996682;28;20403;-92
2023/01/03 06:56:52;;;;;;;;;;;;;;;2.65;77.45;100853.84;4980478;28;19941;-95
2023/01/03 06:59:18;;;;;;;;;;;;;;;2.81;78.19;100847.47;4997481;28;19918;-91
2023/01/03 07:01:44;;;;;;;;;;;;;;;2.96;78.13;100847.09;4997851;28;19909;-96
2023/01/03 07:04:09;;;;;;;;;;;;;;;3.14;78.62;100854.66;4997803;28;19913;-95
2023/01/03 07:06:34;;;;;;;;;;;;;;;2.98;80.37;100844.53;4997638;28;19917;-96
2023/01/03 07:09:00;;;;;;;;;;;;;;;3.29;80.38;100841.25;4996944;28;19913;-96
2023/01/03 07:11:25;;;;;;;;;;;;;;;3.58;78.83;100849.13;4979903;28;19914;-96
2023/01/03 07:14:01;;;;;;;;;;;;;;;3.69;78.59;100847.75;4997329;28;19914;-96
2023/01/03 07:16:27;;;;;;;;;;;;;;;3.71;79.58;100856.50;4996406;28;19914;-96
2023/01/03 07:18:53;;;;;;;;;;;;;;;4.05;79.54;100852.31;4996900;28;19920;-95
2023/01/03 07:21:18;;;;;;;;;;;;;;;4.35;79.58;100853.19;4996801;28;19914;-95
2023/01/03 07:23:43;;;;;;;;;;;;;;;4.53;78.58;100845.00;4996750;28;20364;-96
2023/01/03 07:26:09;;;;;;;;;;;;;;;4.50;78.48;100848.38;4997011;28;19913;-96
2023/01/03 07:28:34;;;;;;;;;;;;;;;4.69;79.39;100849.78;4979969;28;20391;-95
2023/01/03 07:31:00;;;;;;;;;;;;;;;5.02;78.64;100847.19;4978738;28;19914;-95
2023/01/03 07:33:26;;;;;;;;;;;;;;;4.91;78.25;100847.75;4996580;28;19913;-95
2023/01/03 07:35:51;;;;;;;;;;;;;;;5.11;77.88;100848.25;4978925;28;20344;-96
2023/01/03 07:38:16;;;;;;;;;;;;;;;5.29;77.76;100856.56;4997538;28;19920;-95
2023/01/03 07:40:42;;;;;;;;;;;;;;;5.53;78.06;100851.06;4996860;28;19917;-96
2023/01/03 07:45:54;;;;;;;;;;;;;;;5.29;78.04;100855.69;4999370;28;19925;-94
2023/01/03 07:48:19;;;;;;;;;;;;;;;5.32;78.35;100851.41;4985514;28;19914;-96
2023/01/03 07:50:45;;;;;;;;;;;;;;;5.47;78.59;100850.00;5502100;23;19925;-95
2023/01/03 07:55:46;;;;;;;;;;;;;;;6.13;76.77;100855.91;5589888;23;19922;-93
2023/01/03 07:58:12;;;;;;;;;;;;;;;6.52;75.86;100845.41;4999215;28;19968;-96
2023/01/03 08:00:38;;;;;;;;;;;;;;;6.59;75.49;100849.88;4981921;28;20005;-96
2023/01/03 08:05:38;;;;;;;;;;;;;;;6.90;73.58;100846.97;5014122;23;19934;-96
2023/01/03 08:13:23;;;;;;;;;;;;;;;6.65;74.67;100838.63;4996920;28;19921;-95
2023/01/03 08:15:50;;;;;;;;;;;;;;;6.60;74.91;100842.91;4980177;28;19914;-93
2023/01/03 08:18:18;;;;;;;;;;;;;;;6.48;75.81;100840.06;4979217;28;19913;-96
2023/01/03 08:20:44;;;;;;;;;;;;;;;6.71;76.28;100830.00;4978127;28;19925;-96
2023/01/03 08:23:10;;;;;;;;;;;;;;;7.22;73.85;100833.53;4995721;28;20352;-96
2023/01/03 08:25:35;;;;;;;;;;;;;;;7.28;73.63;100834.53;4996006;28;19953;-96
2023/01/03 08:28:01;;;;;;;;;;;;;;;7.17;73.50;100834.34;4987104;28;19913;-96
2023/01/03 08:30:27;;;;;;;;;;;;;;;7.06;74.39;100828.03;5006754;28;19914;-96
2023/01/03 08:32:54;;;;;;;;;;;;;;;6.96;75.29;100834.84;5142929;23;20934;-96
2023/01/03 08:40:38;;;;;;;;;;;;;;;7.73;72.37;100814.22;5245200;23;19922;-96
2023/01/03 08:43:14;;;;;;;;;;;;;;;7.53;72.84;100813.91;5176167;23;19945;-96
2023/01/03 08:45:40;;;;;;;;;;;;;;;7.74;73.45;100816.00;5090448;23;19924;-96
2023/01/03 08:48:09;;;;;;;;;;;;;;;7.74;73.49;100815.09;5004863;28;19961;-95
2023/01/03 08:50:54;;;;;;;;;;;;;;;7.73;73.25;100811.59;4988969;28;19901;-96
2023/01/03 09:01:24;;;;;;;;;;;;;;;8.09;73.25;100804.19;6048441;23;20806;-96
2023/01/03 09:03:49;;;;;;;;;;;;;;;8.44;71.38;100799.38;5001600;28;19928;-96
2023/01/03 09:06:15;;;;;;;;;;;;;;;8.73;71.01;100793.56;5018876;28;19941;-96
2023/01/03 09:08:40;;;;;;;;;;;;;;;8.62;71.37;100797.81;5019332;28;19914;-96
2023/01/03 09:16:34;;;;;;;;;;;;;;;9.10;69.53;100784.25;4957400;29;19970;-96
2023/01/03 09:19:01;;;;;;;;;;;;;;;8.93;69.87;100777.97;4961000;29;19906;-95
2023/01/03 09:26:33;;;;;;;;;;;;;;;9.16;68.04;100765.00;5529600;23;19971;-90
2023/01/03 10:06:12;;;;;;;;;;;;;;;10.46;63.46;100697.13;4994778;28;20335;-96
2023/01/03 10:08:43;;;;;;;;;;;;;;;10.44;63.60;100691.84;4983858;28;19913;-96
2023/01/03 10:13:44;;;;;;;;;;;;;;;10.96;62.64;100684.81;5116763;23;19910;-95
2023/01/03 10:16:29;;;;;;;;;;;;;;;11.03;62.36;100674.25;5043999;23;20125;-94
2023/01/03 10:19:05;;;;;;;;;;;;;;;11.03;62.80;100676.00;4999128;28;19960;-96
2023/01/03 10:21:40;;;;;;;;;;;;;;;11.41;60.50;100667.97;5007438;28;19906;-96
2023/01/03 10:24:23;;;;;;;;;;;;;;;11.29;59.66;100668.91;5118344;23;20213;-90
2023/01/03 10:27:20;;;;;;;;;;;;;;;11.38;59.32;100668.00;4976449;28;19910;-94
2023/01/03 10:30:00;;;;;;;;;;;;;;;11.39;58.23;100672.41;4978775;29;19906;-95
2023/01/03 10:38:01;;;;;;;;;;;;;;;11.91;56.83;100647.53;4959656;28;19923;-96
2023/01/03 10:40:38;;;;;;;;;;;;;;;11.91;57.00;100647.53;4931687;29;19926;-96
2023/01/03 10:43:22;;;;;;;;;;;;;;;12.15;56.74;100643.88;4947095;28;20021;-95
2023/01/03 10:46:16;;;;;;;;;;;;;;;12.18;56.72;100630.66;4977571;28;19918;-96
2023/01/03 10:49:37;;;;;;;;;;;;;;;12.36;56.77;100626.13;4969141;29;19930;-96
2023/01/03 10:55:27;;;;;;;;;;;;;;;12.50;55.06;100610.16;5013582;28;19921;-95
2023/01/03 10:58:03;;;;;;;;;;;;;;;12.51;55.72;100620.72;5244392;23;19922;-96
2023/01/03 11:06:11;;;;;;;;;;;;;;;12.68;56.14;100599.41;5353393;23;20431;-96
2023/01/03 11:11:40;;;;;;;;;;;;;;;12.89;54.95;100594.78;5023963;28;19964;-96
2023/01/03 11:15:04;;;;;;;;;;;;;;;13.03;54.65;100598.16;5015321;28;19996;-96
2023/01/03 11:17:29;;;;;;;;;;;;;;;12.97;54.88;100586.75;4941125;29;20385;-96
2023/01/03 11:19:56;;;;;;;;;;;;;;;13.15;54.75;100583.91;4938015;29;19929;-95
2023/01/03 11:22:51;;;;;;;;;;;;;;;13.38;53.79;100574.84;4970278;28;19919;-96
2023/01/03 11:25:41;;;;;;;;;;;;;;;13.50;52.96;100568.50;4988445;28;19914;-96
2023/01/03 11:28:24;;;;;;;;;;;;;;;13.55;52.81;100574.63;5020562;28;19952;-95
2023/01/03 11:31:09;;;;;;;;;;;;;;;13.52;53.51;100558.75;5010087;28;20279;-96
2023/01/03 11:33:41;;;;;;;;;;;;;;;13.67;53.09;100563.84;5005540;28;19913;-96
2023/01/03 11:36:31;;;;;;;;;;;;;;;13.72;53.38;100556.72;5025674;28;19913;-95
2023/01/03 11:39:15;;;;;;;;;;;;;;;13.68;53.00;100548.81;5054525;23;19922;-96
2023/01/03 11:41:59;;;;;;;;;;;;;;;13.82;53.37;100544.19;4987978;28;19925;-94
2023/01/03 11:44:43;;;;;;;;;;;;;;;13.95;52.79;100539.59;4980878;28;20004;-96
2023/01/03 11:47:39;;;;;;;;;;;;;;;14.04;52.13;100538.56;5001453;28;19918;-91
2023/01/03 11:50:20;;;;;;;;;;;;;;;13.97;52.17;100540.44;4986853;28;19913;-96
2023/01/03 11:53:03;;;;;;;;;;;;;;;14.09;52.59;100534.94;5002548;28;19929;-95
2023/01/03 11:55:31;;;;;;;;;;;;;;;14.20;51.51;100524.16;4984939;28;19917;-94
2023/01/03 11:58:06;;;;;;;;;;;;;;;14.23;51.38;100525.88;4980720;28;19960;-92
2023/01/03 12:00:48;;;;;;;;;;;;;;;14.31;50.60;100516.88;4977999;28;19913;-91
2023/01/03 12:12:20;;;;;;;;;;;;;;;14.48;49.86;100503.28;5983568;23;19994;-95
2023/01/03 12:14:52;;;;;;;;;;;;;;;14.65;48.75;100502.16;4979517;28;19932;-95
2023/01/03 12:17:23;;;;;;;;;;;;;;;14.59;48.53;100500.44;4996204;28;19913;-94
2023/01/03 12:19:56;;;;;;;;;;;;;;;14.50;48.70;100495.31;4981704;28;19913;-94
2023/01/03 12:22:21;;;;;;;;;;;;;;;14.48;49.16;100494.47;4977868;28;19952;-94
2023/01/03 12:24:51;;;;;;;;;;;;;;;14.85;47.51;100499.97;4978109;28;19965;-96
2023/01/03 12:27:48;;;;;;;;;;;;;;;14.86;47.24;100488.44;5003218;28;19922;-96
2023/01/03 12:30:33;;;;;;;;;;;;;;;15.04;47.66;100494.28;4988343;28;19949;-96
2023/01/03 12:33:09;;;;;;;;;;;;;;;15.10;46.76;100491.50;4980205;28;19964;-96
2023/01/03 12:35:43;;;;;;;;;;;;;;;15.03;47.47;100484.59;4978962;28;19996;-96
2023/01/03 12:38:09;;;;;;;;;;;;;;;15.02;47.44;100482.81;4985192;28;19914;-96
2023/01/03 12:40:38;;;;;;;;;;;;;;;15.12;47.14;100484.41;4980774;28;19925;-96
2023/01/03 12:43:03;;;;;;;;;;;;;;;15.12;47.51;100481.75;4979835;28;19914;-96
2023/01/03 12:45:37;;;;;;;;;;;;;;;15.37;47.32;100475.88;4994446;28;20089;-91
2023/01/03 12:48:21;;;;;;;;;;;;;;;15.52;46.68;100475.53;4977163;28;20001;-94
2023/01/03 12:50:48;;;;;;;;;;;;;;;15.33;47.17;100485.69;4979753;28;19920;-96
2023/01/03 12:53:35;;;;;;;;;;;;;;;15.42;47.02;100478.44;4977976;28;19914;-95
2023/01/03 12:56:09;;;;;;;;;;;;;;;15.49;46.74;100474.72;4980231;28;19914;-93
2023/01/03 12:58:37;;;;;;;;;;;;;;;15.58;47.01;100474.50;4976922;28;20023;-95
2023/01/03 13:01:06;;;;;;;;;;;;;;;15.63;47.06;100471.75;4977345;28;20395;-93
2023/01/03 13:03:40;;;;;;;;;;;;;;;15.55;47.06;100467.50;4977971;28;19916;-96
2023/01/03 13:06:13;;;;;;;;;;;;;;;15.50;46.78;100479.13;4978679;28;19914;-96
2023/01/03 13:08:46;;;;;;;;;;;;;;;15.68;46.84;100469.88;4994927;28;19926;-95
2023/01/03 13:11:35;;;;;;;;;;;;;;;15.69;45.69;100472.50;4977933;28;19914;-96
2023/01/03 13:14:17;;;;;;;;;;;;;;;15.49;46.74;100469.41;4969353;28;20021;-95
2023/01/03 13:16:48;;;;;;;;;;;;;;;15.61;46.30;100471.78;4978839;28;19957;-94
2023/01/03 13:19:23;;;;;;;;;;;;;;;15.49;46.32;100470.28;4984932;28;19914;-95
2023/01/03 13:30:31;;;;;;;;;;;;;;;15.78;46.85;100465.22;5032679;23;19929;-96
2023/01/03 13:33:04;;;;;;;;;;;;;;;15.76;46.33;100466.09;5003799;23;19965;-96
2023/01/03 13:35:56;;;;;;;;;;;;;;;15.71;46.53;100467.13;5109147;27;19913;-95
2023/01/03 13:38:29;;;;;;;;;;;;;;;15.75;47.07;100464.38;5070905;28;19917;-94
2023/01/03 13:41:14;;;;;;;;;;;;;;;15.72;47.33;100468.84;5077377;28;19912;-96
2023/01/03 13:44:03;;;;;;;;;;;;;;;15.80;47.37;100466.94;5064119;28;19909;-96
2023/01/03 13:49:22;;;;;;;;;;;;;;;15.56;49.11;100465.69;5519301;22;20919;-96
2023/01/03 14:00:30;;;;;;;;;;;;;;;15.52;51.69;100451.63;6030506;22;20181;-96
2023/01/03 14:03:20;;;;;;;;;;;;;;;15.54;51.95;100460.41;5059160;28;19920;-96
2023/01/03 14:06:05;;;;;;;;;;;;;;;15.47;52.03;100456.13;5068888;28;19917;-96
2023/01/03 14:08:39;;;;;;;;;;;;;;;15.60;51.63;100458.50;5054329;28;19913;-95
2023/01/03 14:11:19;;;;;;;;;;;;;;;15.50;51.75;100455.22;5049253;28;19913;-96
2023/01/03 14:13:52;;;;;;;;;;;;;;;15.64;51.59;100457.53;5050625;28;19913;-96
2023/01/03 14:16:26;;;;;;;;;;;;;;;15.40;52.15;100463.41;5048207;28;19913;-96
2023/01/03 14:19:06;;;;;;;;;;;;;;;15.33;52.59;100453.78;5049662;28;19924;-96
2023/01/03 14:22:09;;;;;;;;;;;;;;;15.20;53.03;100461.19;5056777;28;19913;-96
2023/01/03 14:25:14;;;;;;;;;;;;;;;15.20;53.45;100463.84;5072335;28;19988;-96
2023/01/03 14:28:15;;;;;;;;;;;;;;;14.96;54.23;100464.34;5087621;28;19920;-96
2023/01/03 14:34:10;;;;;;;;;;;;;;;14.94;53.90;100471.50;5650886;22;19925;-96
2023/01/03 16:47:29;;;;;;;;;;;;;;;9.67;66.20;100568.63;5155290;22;20980;-96
2023/01/03 16:49:59;;;;;;;;;;;;;;;9.62;66.23;100570.38;5228953;22;19925;-95
2023/01/03 16:57:32;;;;;;;;;;;;;;;9.43;67.00;100572.06;5303417;22;19930;-95
2023/01/03 17:05:14;;;;;;;;;;;;;;;9.31;68.03;100593.97;5618513;22;19924;-96
2023/01/03 17:07:40;;;;;;;;;;;;;;;9.23;67.42;100602.69;5074863;28;19916;-89
2023/01/03 17:10:06;;;;;;;;;;;;;;;9.09;67.27;100594.72;5072234;28;20371;-92
2023/01/03 17:12:32;;;;;;;;;;;;;;;9.02;67.47;100601.72;5072030;28;19974;-92
2023/01/03 17:14:59;;;;;;;;;;;;;;;8.97;67.29;100603.41;5073015;28;19948;-94
2023/01/03 17:20:19;;;;;;;;;;;;;;;8.83;67.05;100602.47;5068500;22;19921;-94
2023/01/03 17:22:49;;;;;;;;;;;;;;;8.77;66.95;100604.19;5036414;28;19932;-93
2023/01/03 17:25:15;;;;;;;;;;;;;;;8.79;66.66;100609.47;5033187;28;19913;-94
2023/01/03 17:27:42;;;;;;;;;;;;;;;8.63;66.39;100611.09;5033294;28;19920;-94
2023/01/03 17:30:17;;;;;;;;;;;;;;;8.50;66.66;100612.75;5036690;28;19901;-95
2023/01/03 17:32:43;;;;;;;;;;;;;;;8.37;66.83;100613.47;5034244;28;19963;-90
2023/01/03 17:35:11;;;;;;;;;;;;;;;8.31;67.67;100610.78;5031463;28;20004;-89
2023/01/03 17:37:38;;;;;;;;;;;;;;;8.38;67.98;100621.38;5033813;28;19912;-96
2023/01/03 17:40:16;;;;;;;;;;;;;;;8.27;67.39;100623.03;5037642;28;19920;-92
2023/01/03 17:42:42;;;;;;;;;;;;;;;8.23;67.74;100624.75;5034970;28;19913;-93
2023/01/03 17:50:37;;;;;;;;;;;;;;;8.04;67.23;100626.31;5037670;28;19928;-96
2023/01/03 17:53:03;;;;;;;;;;;;;;;7.95;67.76;100631.47;5036752;28;19913;-86
2023/01/03 17:55:29;;;;;;;;;;;;;;;7.92;67.78;100628.81;5033530;28;19913;-95
2023/01/03 17:58:00;;;;;;;;;;;;;;;7.72;67.47;100639.09;5032909;28;19924;-95
2023/01/03 18:00:41;;;;;;;;;;;;;;;7.53;67.77;100644.13;5112526;22;19922;-96
2023/01/03 18:08:20;;;;;;;;;;;;;;;7.38;68.70;100643.91;5398275;22;19920;-96
2023/01/03 18:10:46;;;;;;;;;;;;;;;7.44;68.15;100641.38;5073864;28;19999;-94
2023/01/03 18:13:19;;;;;;;;;;;;;;;7.31;68.46;100648.22;5072623;28;19966;-94
2023/01/03 18:15:45;;;;;;;;;;;;;;;7.29;68.65;100654.28;5071706;28;19916;-94
2023/01/03 18:18:14;;;;;;;;;;;;;;;7.29;68.51;100651.66;5071806;28;20417;-94
2023/01/03 18:20:43;;;;;;;;;;;;;;;7.34;67.76;100656.13;5074684;28;19999;-94
2023/01/03 18:23:34;;;;;;;;;;;;;;;7.32;67.37;100652.63;5075691;28;19913;-93
2023/01/03 18:26:04;;;;;;;;;;;;;;;7.03;68.14;100653.91;5073954;28;20404;-95
2023/01/03 18:28:29;;;;;;;;;;;;;;;6.94;68.93;100654.69;5075369;28;20362;-95